sensor_id;sensor_type;location;lat;lon;timestamp;pressure;altitude;pressure_sealevel;temperature;humidity
76378;BME280;65200;49.500;8.654;2023-06-14T00:00:35;99943.03;;;21.06;35.10
76378;BME280;65200;49.500;8.654;2023-06-14T00:03:05;99946.22;;;20.93;35.23
76378;BME280;65200;49.500;8.654;2023-06-14T00:05:33;99947.38;;;21.02;35.12
76378;BME280;65200;49.500;8.654;2023-06-14T00:08:03;99937.03;;;21.04;35.25
76378;BME280;65200;49.500;8.654;2023-06-14T00:10:33;99934.31;;;21.09;34.15
76378;BME280;65200;49.500;8.654;2023-06-14T00:13:00;99936.78;;;21.21;34.25
76378;BME280;65200;49.500;8.654;2023-06-14T00:15:26;99929.09;;;21.03;34.83
76378;BME280;65200;49.500;8.654;2023-06-14T00:17:53;99938.94;;;21.04;34.84
76378;BME280;65200;49.500;8.654;2023-06-14T00:20:23;99931.06;;;21.07;34.73
76378;BME280;65200;49.500;8.654;2023-06-14T00:22:49;99928.84;;;20.99;35.18
76378;BME280;65200;49.500;8.654;2023-06-14T00:25:15;99933.16;;;20.95;34.41
76378;BME280;65200;49.500;8.654;2023-06-14T00:27:42;99924.19;;;21.00;34.63
76378;BME280;65200;49.500;8.654;2023-06-14T00:30:09;99934.53;;;20.93;34.70
76378;BME280;65200;49.500;8.654;2023-06-14T00:32:36;99925.22;;;20.84;34.88
76378;BME280;65200;49.500;8.654;2023-06-14T00:35:02;99928.22;;;20.87;34.90
76378;BME280;65200;49.500;8.654;2023-06-14T00:37:30;99922.75;;;20.82;35.16
76378;BME280;65200;49.500;8.654;2023-06-14T00:39:57;99924.41;;;20.78;35.71
76378;BME280;65200;49.500;8.654;2023-06-14T00:42:24;99929.00;;;20.73;35.41
76378;BME280;65200;49.500;8.654;2023-06-14T00:44:51;99923.25;;;20.69;35.80
76378;BME280;65200;49.500;8.654;2023-06-14T00:47:17;99923.25;;;20.69;35.59
76378;BME280;65200;49.500;8.654;2023-06-14T00:49:45;99925.34;;;20.47;36.25
76378;BME280;65200;49.500;8.654;2023-06-14T00:52:11;99927.50;;;20.45;35.58
76378;BME280;65200;49.500;8.654;2023-06-14T00:54:41;99922.91;;;20.46;36.20
76378;BME280;65200;49.500;8.654;2023-06-14T00:57:07;99922.59;;;20.42;36.21
76378;BME280;65200;49.500;8.654;2023-06-14T00:59:35;99926.38;;;20.41;36.04
76378;BME280;65200;49.500;8.654;2023-06-14T01:02:05;99916.53;;;20.30;36.68
76378;BME280;65200;49.500;8.654;2023-06-14T01:04:31;99920.88;;;20.26;36.42
76378;BME280;65200;49.500;8.654;2023-06-14T01:07:02;99923.00;;;20.19;36.62
76378;BME280;65200;49.500;8.654;2023-06-14T01:09:47;99931.22;;;20.24;36.18
76378;BME280;65200;49.500;8.654;2023-06-14T01:12:21;99929.56;;;20.18;36.80
76378;BME280;65200;49.500;8.654;2023-06-14T01:14:50;99930.28;;;20.08;37.46
76378;BME280;65200;49.500;8.654;2023-06-14T01:17:19;99935.38;;;20.00;37.39
76378;BME280;65200;49.500;8.654;2023-06-14T01:19:46;99925.31;;;20.00;37.41
76378;BME280;65200;49.500;8.654;2023-06-14T01:22:12;99924.66;;;19.83;38.13
76378;BME280;65200;49.500;8.654;2023-06-14T01:24:40;99932.53;;;19.85;37.56
76378;BME280;65200;49.500;8.654;2023-06-14T01:27:10;99928.72;;;19.86;37.66
76378;BME280;65200;49.500;8.654;2023-06-14T01:29:37;99927.63;;;19.82;37.65
76378;BME280;65200;49.500;8.654;2023-06-14T01:32:05;99932.84;;;19.88;37.52
76378;BME280;65200;49.500;8.654;2023-06-14T01:34:32;99925.53;;;19.94;37.21
76378;BME280;65200;49.500;8.654;2023-06-14T01:37:00;99922.97;;;19.77;36.94
76378;BME280;65200;49.500;8.654;2023-06-14T01:39:28;99929.47;;;19.76;37.52
76378;BME280;65200;49.500;8.654;2023-06-14T01:41:56;99932.50;;;19.80;37.34
76378;BME280;65200;49.500;8.654;2023-06-14T01:44:23;99932.41;;;19.70;37.75
76378;BME280;65200;49.500;8.654;2023-06-14T01:46:51;99927.50;;;19.67;37.46
76378;BME280;65200;49.500;8.654;2023-06-14T01:49:17;99928.13;;;19.74;37.26
76378;BME280;65200;49.500;8.654;2023-06-14T01:51:44;99935.19;;;19.75;37.04
76378;BME280;65200;49.500;8.654;2023-06-14T01:54:10;99928.38;;;19.72;37.61
76378;BME280;65200;49.500;8.654;2023-06-14T01:56:37;99931.28;;;19.61;37.24
76378;BME280;65200;49.500;8.654;2023-06-14T01:59:04;99933.41;;;19.59;37.54
76378;BME280;65200;49.500;8.654;2023-06-14T02:01:31;99940.31;;;19.40;37.61
76378;BME280;65200;49.500;8.654;2023-06-14T02:03:59;99935.47;;;19.47;37.79
76378;BME280;65200;49.500;8.654;2023-06-14T02:06:26;99936.56;;;19.46;37.57
76378;BME280;65200;49.500;8.654;2023-06-14T02:08:53;99943.22;;;19.60;36.82
76378;BME280;65200;49.500;8.654;2023-06-14T02:11:19;99944.00;;;19.55;37.50
76378;BME280;65200;49.500;8.654;2023-06-14T02:13:46;99941.47;;;19.49;37.43
76378;BME280;65200;49.500;8.654;2023-06-14T02:16:14;99942.25;;;19.44;38.37
76378;BME280;65200;49.500;8.654;2023-06-14T02:18:42;99948.28;;;19.46;37.81
76378;BME280;65200;49.500;8.654;2023-06-14T02:21:08;99955.75;;;19.34;37.75
76378;BME280;65200;49.500;8.654;2023-06-14T02:23:35;99950.94;;;19.41;37.68
76378;BME280;65200;49.500;8.654;2023-06-14T02:26:01;99954.50;;;19.42;37.75
76378;BME280;65200;49.500;8.654;2023-06-14T02:28:28;99953.41;;;19.21;39.46
76378;BME280;65200;49.500;8.654;2023-06-14T02:30:55;99955.75;;;19.12;39.18
76378;BME280;65200;49.500;8.654;2023-06-14T02:33:22;99962.09;;;18.96;39.39
76378;BME280;65200;49.500;8.654;2023-06-14T02:35:50;99949.59;;;18.95;39.35
76378;BME280;65200;49.500;8.654;2023-06-14T02:38:18;99951.75;;;18.93;39.73
76378;BME280;65200;49.500;8.654;2023-06-14T02:40:44;99958.38;;;19.02;39.95
76378;BME280;65200;49.500;8.654;2023-06-14T02:43:11;99950.50;;;18.79;40.12
76378;BME280;65200;49.500;8.654;2023-06-14T02:45:37;99951.03;;;18.76;39.38
76378;BME280;65200;49.500;8.654;2023-06-14T02:48:04;99961.75;;;18.66;41.31
76378;BME280;65200;49.500;8.654;2023-06-14T02:50:32;99963.69;;;18.71;39.48
76378;BME280;65200;49.500;8.654;2023-06-14T02:52:58;99961.75;;;18.66;41.83
76378;BME280;65200;49.500;8.654;2023-06-14T02:55:25;99964.84;;;18.53;41.51
76378;BME280;65200;49.500;8.654;2023-06-14T02:57:51;99969.16;;;18.33;42.07
76378;BME280;65200;49.500;8.654;2023-06-14T03:00:19;99965.13;;;18.19;42.00
76378;BME280;65200;49.500;8.654;2023-06-14T03:02:45;99970.44;;;17.92;42.73
76378;BME280;65200;49.500;8.654;2023-06-14T03:05:11;99973.94;;;17.76;44.51
76378;BME280;65200;49.500;8.654;2023-06-14T03:07:40;99973.22;;;17.64;45.21
76378;BME280;65200;49.500;8.654;2023-06-14T03:10:10;99978.63;;;17.36;45.59
76378;BME280;65200;49.500;8.654;2023-06-14T03:12:38;99978.59;;;16.91;47.33
76378;BME280;65200;49.500;8.654;2023-06-14T03:15:05;99978.81;;;16.50;48.80
76378;BME280;65200;49.500;8.654;2023-06-14T03:17:32;99986.66;;;16.28;49.71
76378;BME280;65200;49.500;8.654;2023-06-14T03:20:00;99983.03;;;16.11;49.73
76378;BME280;65200;49.500;8.654;2023-06-14T03:22:27;99982.56;;;15.91;51.03
76378;BME280;65200;49.500;8.654;2023-06-14T03:24:55;99988.91;;;15.85;50.85
76378;BME280;65200;49.500;8.654;2023-06-14T03:27:21;99990.66;;;15.91;50.21
76378;BME280;65200;49.500;8.654;2023-06-14T03:29:48;100000.66;;;16.02;50.36
76378;BME280;65200;49.500;8.654;2023-06-14T03:32:14;100007.22;;;15.83;51.70
76378;BME280;65200;49.500;8.654;2023-06-14T03:34:41;100005.25;;;15.90;51.11
76378;BME280;65200;49.500;8.654;2023-06-14T03:37:08;100004.25;;;15.73;52.41
76378;BME280;65200;49.500;8.654;2023-06-14T03:39:34;100011.44;;;15.79;51.67
76378;BME280;65200;49.500;8.654;2023-06-14T03:42:02;100017.34;;;15.99;50.50
76378;BME280;65200;49.500;8.654;2023-06-14T03:44:29;100009.50;;;16.32;48.70
76378;BME280;65200;49.500;8.654;2023-06-14T03:46:55;100017.16;;;16.47;48.73
76378;BME280;65200;49.500;8.654;2023-06-14T03:49:22;100014.69;;;16.57;50.16
76378;BME280;65200;49.500;8.654;2023-06-14T03:51:48;100030.06;;;16.68;49.36
76378;BME280;65200;49.500;8.654;2023-06-14T03:54:17;100023.22;;;16.66;49.49
76378;BME280;65200;49.500;8.654;2023-06-14T03:56:43;100019.59;;;16.25;50.58
76378;BME280;65200;49.500;8.654;2023-06-14T03:59:12;100031.88;;;15.75;52.49
76378;BME280;65200;49.500;8.654;2023-06-14T04:01:38;100032.75;;;15.28;55.63
76378;BME280;65200;49.500;8.654;2023-06-14T04:04:11;100037.66;;;15.01;54.56
76378;BME280;65200;49.500;8.654;2023-06-14T04:06:38;100039.09;;;15.34;54.00
76378;BME280;65200;49.500;8.654;2023-06-14T04:09:05;100040.47;;;15.95;51.19
76378;BME280;65200;49.500;8.654;2023-06-14T04:11:32;100040.25;;;16.08;51.67
76378;BME280;65200;49.500;8.654;2023-06-14T04:13:58;100047.56;;;16.42;50.90
76378;BME280;65200;49.500;8.654;2023-06-14T04:16:26;100040.75;;;16.75;48.45
76378;BME280;65200;49.500;8.654;2023-06-14T04:18:54;100049.09;;;16.85;49.26
76378;BME280;65200;49.500;8.654;2023-06-14T04:21:20;100043.91;;;16.83;49.07
76378;BME280;65200;49.500;8.654;2023-06-14T04:23:48;100051.50;;;16.58;50.88
76378;BME280;65200;49.500;8.654;2023-06-14T04:26:18;100050.38;;;16.36;51.35
76378;BME280;65200;49.500;8.654;2023-06-14T04:28:45;100059.34;;;16.36;51.65
76378;BME280;65200;49.500;8.654;2023-06-14T04:31:12;100058.88;;;16.63;49.81
76378;BME280;65200;49.500;8.654;2023-06-14T04:33:40;100061.94;;;16.66;51.40
76378;BME280;65200;49.500;8.654;2023-06-14T04:36:10;100054.06;;;16.76;51.14
76378;BME280;65200;49.500;8.654;2023-06-14T04:38:38;100060.19;;;16.72;51.15
76378;BME280;65200;49.500;8.654;2023-06-14T04:41:04;100057.72;;;16.70;49.73
76378;BME280;65200;49.500;8.654;2023-06-14T04:43:31;100064.28;;;16.74;51.40
76378;BME280;65200;49.500;8.654;2023-06-14T04:46:03;100066.75;;;16.64;54.31
76378;BME280;65200;49.500;8.654;2023-06-14T04:48:31;100075.59;;;16.83;52.05
76378;BME280;65200;49.500;8.654;2023-06-14T04:50:59;100071.44;;;16.92;51.96
76378;BME280;65200;49.500;8.654;2023-06-14T04:53:25;100075.22;;;16.91;53.08
76378;BME280;65200;49.500;8.654;2023-06-14T04:55:54;100071.94;;;16.77;52.97
76378;BME280;65200;49.500;8.654;2023-06-14T04:58:20;100074.75;;;16.71;53.81
76378;BME280;65200;49.500;8.654;2023-06-14T05:00:47;100077.00;;;16.74;54.84
76378;BME280;65200;49.500;8.654;2023-06-14T05:03:13;100082.03;;;16.82;53.74
76378;BME280;65200;49.500;8.654;2023-06-14T05:05:40;100076.75;;;16.87;54.16
76378;BME280;65200;49.500;8.654;2023-06-14T05:08:08;100072.28;;;16.92;54.60
76378;BME280;65200;49.500;8.654;2023-06-14T05:10:34;100082.78;;;17.28;51.84
76378;BME280;65200;49.500;8.654;2023-06-14T05:13:01;100082.25;;;17.71;48.60
76378;BME280;65200;49.500;8.654;2023-06-14T05:15:28;100082.00;;;18.01;46.76
76378;BME280;65200;49.500;8.654;2023-06-14T05:17:54;100085.56;;;18.18;46.40
76378;BME280;65200;49.500;8.654;2023-06-14T05:20:21;100085.47;;;18.29;46.54
76378;BME280;65200;49.500;8.654;2023-06-14T05:22:50;100086.59;;;18.33;47.34
76378;BME280;65200;49.500;8.654;2023-06-14T05:25:18;100085.72;;;18.44;46.36
76378;BME280;65200;49.500;8.654;2023-06-14T05:27:45;100089.19;;;18.56;45.46
76378;BME280;65200;49.500;8.654;2023-06-14T05:30:12;100082.06;;;18.72;45.85
76378;BME280;65200;49.500;8.654;2023-06-14T05:32:39;100084.59;;;18.78;44.21
76378;BME280;65200;49.500;8.654;2023-06-14T05:35:06;100083.47;;;18.74;44.23
76378;BME280;65200;49.500;8.654;2023-06-14T05:37:33;100081.34;;;18.76;44.95
76378;BME280;65200;49.500;8.654;2023-06-14T05:39:59;100092.81;;;18.83;46.14
76378;BME280;65200;49.500;8.654;2023-06-14T05:42:27;100084.25;;;18.91;43.99
76378;BME280;65200;49.500;8.654;2023-06-14T05:44:54;100100.44;;;18.81;44.51
76378;BME280;65200;49.500;8.654;2023-06-14T05:47:20;100092.97;;;18.93;44.26
76378;BME280;65200;49.500;8.654;2023-06-14T05:49:47;100094.63;;;18.94;45.70
76378;BME280;65200;49.500;8.654;2023-06-14T05:52:13;100094.94;;;18.98;44.66
76378;BME280;65200;49.500;8.654;2023-06-14T05:54:40;100100.69;;;19.01;44.38
76378;BME280;65200;49.500;8.654;2023-06-14T05:57:07;100105.75;;;19.14;44.58
76378;BME280;65200;49.500;8.654;2023-06-14T05:59:34;100105.69;;;19.09;45.73
76378;BME280;65200;49.500;8.654;2023-06-14T06:02:01;100107.06;;;19.29;43.75
76378;BME280;65200;49.500;8.654;2023-06-14T06:04:28;100109.38;;;19.20;44.42
76378;BME280;65200;49.500;8.654;2023-06-14T06:06:54;100111.00;;;19.21;43.72
76378;BME280;65200;49.500;8.654;2023-06-14T06:09:21;100105.38;;;19.28;43.59
76378;BME280;65200;49.500;8.654;2023-06-14T06:11:47;100112.50;;;19.29;44.89
76378;BME280;65200;49.500;8.654;2023-06-14T06:14:14;100106.66;;;19.20;44.32
76378;BME280;65200;49.500;8.654;2023-06-14T06:16:42;100122.16;;;19.41;43.21
76378;BME280;65200;49.500;8.654;2023-06-14T06:19:08;100122.03;;;19.31;43.82
76378;BME280;65200;49.500;8.654;2023-06-14T06:21:34;100128.91;;;19.39;43.54
76378;BME280;65200;49.500;8.654;2023-06-14T06:24:01;100127.28;;;19.38;44.29
76378;BME280;65200;49.500;8.654;2023-06-14T06:26:30;100124.44;;;19.49;45.80
76378;BME280;65200;49.500;8.654;2023-06-14T06:28:57;100131.19;;;19.47;46.38
76378;BME280;65200;49.500;8.654;2023-06-14T06:31:23;100126.81;;;19.67;43.80
76378;BME280;65200;49.500;8.654;2023-06-14T06:33:54;100131.66;;;19.87;42.20
76378;BME280;65200;49.500;8.654;2023-06-14T06:36:20;100121.34;;;19.89;42.79
76378;BME280;65200;49.500;8.654;2023-06-14T06:38:47;100115.75;;;19.74;42.45
76378;BME280;65200;49.500;8.654;2023-06-14T06:41:14;100124.66;;;19.96;43.52
76378;BME280;65200;49.500;8.654;2023-06-14T06:43:41;100129.50;;;19.89;43.77
76378;BME280;65200;49.500;8.654;2023-06-14T06:46:07;100128.53;;;20.00;43.06
76378;BME280;65200;49.500;8.654;2023-06-14T06:48:34;100127.38;;;20.17;42.62
76378;BME280;65200;49.500;8.654;2023-06-14T06:51:02;100130.00;;;20.12;43.24
76378;BME280;65200;49.500;8.654;2023-06-14T06:53:28;100139.56;;;20.15;42.79
76378;BME280;65200;49.500;8.654;2023-06-14T06:55:55;100136.47;;;20.33;43.31
76378;BME280;65200;49.500;8.654;2023-06-14T06:58:21;100145.22;;;20.35;43.71
76378;BME280;65200;49.500;8.654;2023-06-14T07:00:47;100142.06;;;20.48;41.71
76378;BME280;65200;49.500;8.654;2023-06-14T07:03:14;100153.81;;;20.54;40.68
76378;BME280;65200;49.500;8.654;2023-06-14T07:05:40;100153.59;;;20.60;40.42
76378;BME280;65200;49.500;8.654;2023-06-14T07:08:08;100148.78;;;20.72;40.67
76378;BME280;65200;49.500;8.654;2023-06-14T07:10:35;100156.72;;;20.79;40.54
76378;BME280;65200;49.500;8.654;2023-06-14T07:13:02;100154.97;;;20.63;42.39
76378;BME280;65200;49.500;8.654;2023-06-14T07:15:29;100160.25;;;20.74;40.78
76378;BME280;65200;49.500;8.654;2023-06-14T07:17:59;100163.97;;;21.00;41.10
76378;BME280;65200;49.500;8.654;2023-06-14T07:20:25;100158.88;;;21.65;38.51
76378;BME280;65200;49.500;8.654;2023-06-14T07:22:52;100165.09;;;22.77;37.84
76378;BME280;65200;49.500;8.654;2023-06-14T07:25:20;100164.66;;;23.59;35.95
76378;BME280;65200;49.500;8.654;2023-06-14T07:27:47;100175.63;;;24.13;33.83
76378;BME280;65200;49.500;8.654;2023-06-14T07:30:14;100166.91;;;24.45;33.71
76378;BME280;65200;49.500;8.654;2023-06-14T07:32:41;100167.97;;;24.87;33.40
76378;BME280;65200;49.500;8.654;2023-06-14T07:35:08;100171.56;;;25.11;33.46
76378;BME280;65200;49.500;8.654;2023-06-14T07:37:34;100179.75;;;24.88;33.63
76378;BME280;65200;49.500;8.654;2023-06-14T07:40:02;100183.41;;;25.07;33.77
76378;BME280;65200;49.500;8.654;2023-06-14T07:42:34;100182.34;;;25.03;34.29
76378;BME280;65200;49.500;8.654;2023-06-14T07:45:01;100180.88;;;25.62;33.85
76378;BME280;65200;49.500;8.654;2023-06-14T07:47:27;100183.94;;;25.61;33.62
76378;BME280;65200;49.500;8.654;2023-06-14T07:49:54;100184.16;;;25.41;33.30
76378;BME280;65200;49.500;8.654;2023-06-14T07:52:20;100184.97;;;25.13;36.19
76378;BME280;65200;49.500;8.654;2023-06-14T07:54:47;100183.34;;;25.12;33.94
76378;BME280;65200;49.500;8.654;2023-06-14T07:57:13;100181.53;;;25.02;33.13
76378;BME280;65200;49.500;8.654;2023-06-14T07:59:41;100182.34;;;25.03;35.44
76378;BME280;65200;49.500;8.654;2023-06-14T08:02:08;100186.09;;;25.83;31.75
76378;BME280;65200;49.500;8.654;2023-06-14T08:04:34;100183.72;;;25.76;32.02
76378;BME280;65200;49.500;8.654;2023-06-14T08:07:01;100187.94;;;25.92;30.99
76378;BME280;65200;49.500;8.654;2023-06-14T08:09:28;100189.50;;;25.98;33.51
76378;BME280;65200;49.500;8.654;2023-06-14T08:11:55;100185.66;;;25.52;32.74
76378;BME280;65200;49.500;8.654;2023-06-14T08:14:21;100196.66;;;25.52;31.32
76378;BME280;65200;49.500;8.654;2023-06-14T08:16:49;100194.06;;;25.84;31.96
76378;BME280;65200;49.500;8.654;2023-06-14T08:19:16;100184.34;;;25.92;32.88
76378;BME280;65200;49.500;8.654;2023-06-14T08:21:43;100192.56;;;25.73;30.89
76378;BME280;65200;49.500;8.654;2023-06-14T08:24:10;100186.09;;;26.06;30.96
76378;BME280;65200;49.500;8.654;2023-06-14T08:26:37;100182.31;;;26.21;29.63
76378;BME280;65200;49.500;8.654;2023-06-14T08:29:04;100177.72;;;26.16;32.59
76378;BME280;65200;49.500;8.654;2023-06-14T08:31:32;100193.72;;;25.91;34.03
76378;BME280;65200;49.500;8.654;2023-06-14T08:33:59;100187.84;;;25.26;31.88
76378;BME280;65200;49.500;8.654;2023-06-14T08:36:26;100192.56;;;25.73;32.23
76378;BME280;65200;49.500;8.654;2023-06-14T08:38:52;100191.88;;;26.23;30.70
76378;BME280;65200;49.500;8.654;2023-06-14T08:41:21;100202.59;;;26.06;29.11
76378;BME280;65200;49.500;8.654;2023-06-14T08:43:48;100199.88;;;25.59;32.71
76378;BME280;65200;49.500;8.654;2023-06-14T08:46:17;100196.00;;;25.08;33.97
76378;BME280;65200;49.500;8.654;2023-06-14T08:48:46;100202.22;;;24.90;33.61
76378;BME280;65200;49.500;8.654;2023-06-14T08:51:17;100201.28;;;25.28;31.84
76378;BME280;65200;49.500;8.654;2023-06-14T08:53:44;100197.59;;;25.66;29.83
76378;BME280;65200;49.500;8.654;2023-06-14T08:56:12;100194.63;;;25.81;33.11
76378;BME280;65200;49.500;8.654;2023-06-14T08:58:42;100209.50;;;25.28;31.83
76378;BME280;65200;49.500;8.654;2023-06-14T09:01:11;100211.38;;;25.61;27.98
76378;BME280;65200;49.500;8.654;2023-06-14T09:03:39;100206.94;;;25.65;28.52
76378;BME280;65200;49.500;8.654;2023-06-14T09:06:08;100212.53;;;25.55;28.48
76378;BME280;65200;49.500;8.654;2023-06-14T09:08:40;100215.41;;;25.45;28.87
76378;BME280;65200;49.500;8.654;2023-06-14T09:11:08;100213.00;;;25.62;30.67
76378;BME280;65200;49.500;8.654;2023-06-14T09:13:34;100207.31;;;25.30;30.88
76378;BME280;65200;49.500;8.654;2023-06-14T09:16:01;100207.78;;;24.80;31.89
76378;BME280;65200;49.500;8.654;2023-06-14T09:18:34;100205.59;;;24.82;30.80
76378;BME280;65200;49.500;8.654;2023-06-14T09:21:01;100215.16;;;25.13;32.52
76378;BME280;65200;49.500;8.654;2023-06-14T09:23:27;100216.88;;;25.61;31.83
76378;BME280;65200;49.500;8.654;2023-06-14T09:25:55;100213.69;;;25.49;31.69
76378;BME280;65200;49.500;8.654;2023-06-14T09:28:26;100219.53;;;25.14;32.29
76378;BME280;65200;49.500;8.654;2023-06-14T09:30:53;100215.97;;;25.13;33.96
76378;BME280;65200;49.500;8.654;2023-06-14T09:33:20;100227.53;;;25.10;32.46
76378;BME280;65200;49.500;8.654;2023-06-14T09:35:50;100224.25;;;25.08;31.71
76378;BME280;65200;49.500;8.654;2023-06-14T09:38:17;100230.50;;;24.42;32.76
76378;BME280;65200;49.500;8.654;2023-06-14T09:40:43;100234.34;;;24.41;32.49
76378;BME280;65200;49.500;8.654;2023-06-14T09:43:11;100232.00;;;24.63;33.20
76378;BME280;65200;49.500;8.654;2023-06-14T09:45:38;100221.88;;;24.97;32.60
76378;BME280;65200;49.500;8.654;2023-06-14T09:48:06;100228.91;;;25.41;31.54
76378;BME280;65200;49.500;8.654;2023-06-14T09:50:33;100220.72;;;25.60;32.14
76378;BME280;65200;49.500;8.654;2023-06-14T09:53:03;100224.09;;;25.52;33.35
76378;BME280;65200;49.500;8.654;2023-06-14T09:55:34;100216.16;;;25.74;32.11
76378;BME280;65200;49.500;8.654;2023-06-14T09:58:04;100213.03;;;25.33;31.64
76378;BME280;65200;49.500;8.654;2023-06-14T10:00:34;100218.50;;;25.05;31.37
76378;BME280;65200;49.500;8.654;2023-06-14T10:03:12;100213.81;;;25.39;34.14
76378;BME280;65200;49.500;8.654;2023-06-14T10:05:40;100210.56;;;25.37;31.70
76378;BME280;65200;49.500;8.654;2023-06-14T10:08:08;100218.31;;;25.25;33.40
76378;BME280;65200;49.500;8.654;2023-06-14T10:10:35;100213.94;;;25.52;30.03
76378;BME280;65200;49.500;8.654;2023-06-14T10:13:02;100216.53;;;25.67;32.38
76378;BME280;65200;49.500;8.654;2023-06-14T10:15:35;100219.06;;;25.83;31.36
76378;BME280;65200;49.500;8.654;2023-06-14T10:18:08;100215.59;;;25.96;31.07
76378;BME280;65200;49.500;8.654;2023-06-14T10:20:44;100226.25;;;25.03;31.16
76378;BME280;65200;49.500;8.654;2023-06-14T10:23:18;100211.16;;;24.67;31.06
76378;BME280;65200;49.500;8.654;2023-06-14T10:25:49;100216.91;;;25.27;30.79
76378;BME280;65200;49.500;8.654;2023-06-14T10:28:18;100215.44;;;25.87;30.21
76378;BME280;65200;49.500;8.654;2023-06-14T10:31:05;100215.38;;;26.34;31.56
76378;BME280;65200;49.500;8.654;2023-06-14T10:33:34;100215.00;;;26.78;29.47
76378;BME280;65200;49.500;8.654;2023-06-14T10:36:08;100216.31;;;27.13;28.35
76378;BME280;65200;49.500;8.654;2023-06-14T10:38:36;100221.47;;;26.31;29.40
76378;BME280;65200;49.500;8.654;2023-06-14T10:41:03;100229.72;;;24.41;31.80
76378;BME280;65200;49.500;8.654;2023-06-14T10:43:30;100224.03;;;23.64;32.51
76378;BME280;65200;49.500;8.654;2023-06-14T10:46:17;100223.44;;;24.74;32.82
76378;BME280;65200;49.500;8.654;2023-06-14T10:48:48;100212.09;;;26.14;29.98
76378;BME280;65200;49.500;8.654;2023-06-14T10:51:16;100219.81;;;26.86;26.59
76378;BME280;65200;49.500;8.654;2023-06-14T10:53:45;100214.63;;;26.84;29.52
76378;BME280;65200;49.500;8.654;2023-06-14T10:56:23;100214.47;;;27.08;27.07
76378;BME280;65200;49.500;8.654;2023-06-14T10:58:51;100212.53;;;27.54;28.89
76378;BME280;65200;49.500;8.654;2023-06-14T11:01:34;100216.50;;;27.16;28.99
76378;BME280;65200;49.500;8.654;2023-06-14T11:04:07;100211.00;;;27.03;28.74
76378;BME280;65200;49.500;8.654;2023-06-14T11:06:47;100214.06;;;27.74;25.43
76378;BME280;65200;49.500;8.654;2023-06-14T11:09:34;100216.63;;;27.84;25.87
76378;BME280;65200;49.500;8.654;2023-06-14T11:12:06;100210.06;;;27.80;27.33
76378;BME280;65200;49.500;8.654;2023-06-14T11:14:35;100212.16;;;28.37;26.32
76378;BME280;65200;49.500;8.654;2023-06-14T11:17:03;100208.72;;;28.18;24.91
76378;BME280;65200;49.500;8.654;2023-06-14T11:19:30;100204.53;;;28.20;25.47
76378;BME280;65200;49.500;8.654;2023-06-14T11:21:57;100217.53;;;28.42;28.27
76378;BME280;65200;49.500;8.654;2023-06-14T11:24:23;100224.44;;;28.17;25.75
76378;BME280;65200;49.500;8.654;2023-06-14T11:26:50;100209.69;;;28.36;27.51
76378;BME280;65200;49.500;8.654;2023-06-14T11:29:16;100201.81;;;27.53;29.97
76378;BME280;65200;49.500;8.654;2023-06-14T11:31:43;100216.19;;;27.63;29.67
76378;BME280;65200;49.500;8.654;2023-06-14T11:34:12;100209.63;;;28.27;27.71
76378;BME280;65200;49.500;8.654;2023-06-14T11:36:39;100213.31;;;29.02;26.39
76378;BME280;65200;49.500;8.654;2023-06-14T11:39:07;100217.50;;;28.20;25.42
76378;BME280;65200;49.500;8.654;2023-06-14T11:41:36;100222.84;;;28.52;27.81
76378;BME280;65200;49.500;8.654;2023-06-14T11:44:03;100214.66;;;28.61;24.76
76378;BME280;65200;49.500;8.654;2023-06-14T11:46:29;100212.81;;;28.56;26.42
76378;BME280;65200;49.500;8.654;2023-06-14T11:48:56;100212.63;;;28.53;25.71
76378;BME280;65200;49.500;8.654;2023-06-14T11:51:24;100218.22;;;28.12;26.66
76378;BME280;65200;49.500;8.654;2023-06-14T11:53:51;100202.56;;;28.70;25.64
76378;BME280;65200;49.500;8.654;2023-06-14T11:56:18;100216.00;;;28.50;27.49
76378;BME280;65200;49.500;8.654;2023-06-14T11:58:45;100202.94;;;27.92;28.73
76378;BME280;65200;49.500;8.654;2023-06-14T12:01:14;100206.22;;;28.30;29.61
76378;BME280;65200;49.500;8.654;2023-06-14T12:03:47;100206.72;;;27.96;27.41
76378;BME280;65200;49.500;8.654;2023-06-14T12:06:14;100207.63;;;27.51;28.28
76378;BME280;65200;49.500;8.654;2023-06-14T12:08:42;100211.16;;;26.92;30.30
76378;BME280;65200;49.500;8.654;2023-06-14T12:11:11;100207.41;;;26.51;29.03
76378;BME280;65200;49.500;8.654;2023-06-14T12:13:38;100209.38;;;26.51;27.85
76378;BME280;65200;49.500;8.654;2023-06-14T12:16:07;100209.50;;;26.04;31.21
76378;BME280;65200;49.500;8.654;2023-06-14T12:18:34;100201.72;;;26.29;28.82
76378;BME280;65200;49.500;8.654;2023-06-14T12:21:02;100213.81;;;26.28;28.35
76378;BME280;65200;49.500;8.654;2023-06-14T12:23:44;100213.91;;;26.00;28.30
76378;BME280;65200;49.500;8.654;2023-06-14T12:26:15;100212.38;;;26.12;30.03
76378;BME280;65200;49.500;8.654;2023-06-14T12:28:42;100215.00;;;25.56;29.98
76378;BME280;65200;49.500;8.654;2023-06-14T12:31:09;100201.97;;;25.67;31.47
76378;BME280;65200;49.500;8.654;2023-06-14T12:33:36;100196.88;;;26.21;32.88
76378;BME280;65200;49.500;8.654;2023-06-14T12:36:04;100205.25;;;25.69;31.18
76378;BME280;65200;49.500;8.654;2023-06-14T12:38:31;100199.22;;;25.91;29.63
76378;BME280;65200;49.500;8.654;2023-06-14T12:40:59;100196.34;;;26.56;29.04
76378;BME280;65200;49.500;8.654;2023-06-14T12:43:25;100197.03;;;27.85;29.00
76378;BME280;65200;49.500;8.654;2023-06-14T12:45:52;100201.72;;;28.48;28.53
76378;BME280;65200;49.500;8.654;2023-06-14T12:48:19;100198.16;;;28.34;27.26
76378;BME280;65200;49.500;8.654;2023-06-14T12:50:45;100197.94;;;27.94;25.04
76378;BME280;65200;49.500;8.654;2023-06-14T12:53:12;100203.69;;;28.91;25.47
76378;BME280;65200;49.500;8.654;2023-06-14T12:55:39;100198.50;;;28.98;24.96